sensor_id;sensor_type;location;lat;lon;timestamp;P1;durP1;ratioP1;P2;durP2;ratioP2
64367;SDS011;50692;53.314;-6.300;2022-11-20T00:02:32;9.70;;;2.77;;
64367;SDS011;50692;53.314;-6.300;2022-11-20T00:05:19;9.03;;;2.40;;
64367;SDS011;50692;53.314;-6.300;2022-11-20T00:08:06;7.47;;;2.83;;
64367;SDS011;50692;53.314;-6.300;2022-11-20T00:10:52;5.23;;;1.80;;
64367;SDS011;50692;53.314;-6.300;2022-11-20T00:13:37;6.00;;;2.50;;
64367;SDS011;50692;53.314;-6.300;2022-11-20T00:16:25;7.67;;;2.47;;
64367;SDS011;50692;53.314;-6.300;2022-11-20T00:19:13;9.47;;;2.70;;
64367;SDS011;50692;53.314;-6.300;2022-11-20T00:21:58;4.93;;;2.27;;
64367;SDS011;50692;53.314;-6.300;2022-11-20T00:24:44;4.93;;;2.00;;
64367;SDS011;50692;53.314;-6.300;2022-11-20T00:27:30;5.77;;;2.30;;
64367;SDS011;50692;53.314;-6.300;2022-11-20T00:30:16;6.57;;;2.40;;
64367;SDS011;50692;53.314;-6.300;2022-11-20T00:33:02;6.17;;;2.43;;
64367;SDS011;50692;53.314;-6.300;2022-11-20T00:35:48;5.87;;;2.47;;
64367;SDS011;50692;53.314;-6.300;2022-11-20T00:38:33;6.67;;;2.97;;
64367;SDS011;50692;53.314;-6.300;2022-11-20T00:41:20;6.43;;;2.37;;
64367;SDS011;50692;53.314;-6.300;2022-11-20T00:44:06;6.37;;;2.50;;
64367;SDS011;50692;53.314;-6.300;2022-11-20T00:46:53;8.00;;;2.57;;
64367;SDS011;50692;53.314;-6.300;2022-11-20T00:49:39;11.57;;;3.10;;
64367;SDS011;50692;53.314;-6.300;2022-11-20T00:52:26;7.70;;;2.73;;
64367;SDS011;50692;53.314;-6.300;2022-11-20T00:55:12;8.20;;;2.80;;
64367;SDS011;50692;53.314;-6.300;2022-11-20T00:57:58;9.97;;;3.53;;
64367;SDS011;50692;53.314;-6.300;2022-11-20T01:00:44;8.13;;;2.80;;
64367;SDS011;50692;53.314;-6.300;2022-11-20T01:03:30;8.27;;;2.70;;
64367;SDS011;50692;53.314;-6.300;2022-11-20T01:06:21;8.80;;;2.93;;
64367;SDS011;50692;53.314;-6.300;2022-11-20T01:09:18;9.50;;;3.17;;
64367;SDS011;50692;53.314;-6.300;2022-11-20T01:12:04;10.07;;;3.40;;
64367;SDS011;50692;53.314;-6.300;2022-11-20T01:14:50;13.23;;;3.90;;
64367;SDS011;50692;53.314;-6.300;2022-11-20T01:17:36;7.33;;;3.00;;
64367;SDS011;50692;53.314;-6.300;2022-11-20T01:20:21;10.80;;;3.60;;
64367;SDS011;50692;53.314;-6.300;2022-11-20T01:23:07;10.23;;;3.00;;
64367;SDS011;50692;53.314;-6.300;2022-11-20T01:25:53;10.40;;;2.97;;
64367;SDS011;50692;53.314;-6.300;2022-11-20T01:28:39;10.37;;;3.43;;
64367;SDS011;50692;53.314;-6.300;2022-11-20T01:31:26;7.43;;;2.90;;
64367;SDS011;50692;53.314;-6.300;2022-11-20T01:34:16;13.32;;;3.55;;
64367;SDS011;50692;53.314;-6.300;2022-11-20T01:37:03;12.03;;;3.10;;
64367;SDS011;50692;53.314;-6.300;2022-11-20T01:39:49;11.17;;;3.13;;
64367;SDS011;50692;53.314;-6.300;2022-11-20T01:42:34;9.63;;;2.80;;
64367;SDS011;50692;53.314;-6.300;2022-11-20T01:49:55;9.50;;;3.33;;
64367;SDS011;50692;53.314;-6.300;2022-11-20T01:52:27;8.17;;;3.10;;
64367;SDS011;50692;53.314;-6.300;2022-11-20T01:55:37;8.73;;;2.83;;
64367;SDS011;50692;53.314;-6.300;2022-11-20T01:58:30;9.90;;;3.40;;
64367;SDS011;50692;53.314;-6.300;2022-11-20T02:01:21;9.00;;;2.90;;
64367;SDS011;50692;53.314;-6.300;2022-11-20T02:04:07;11.23;;;3.13;;
64367;SDS011;50692;53.314;-6.300;2022-11-20T02:06:57;12.07;;;3.20;;
64367;SDS011;50692;53.314;-6.300;2022-11-20T02:09:45;9.57;;;3.20;;
64367;SDS011;50692;53.314;-6.300;2022-11-20T02:12:31;7.00;;;2.70;;
64367;SDS011;50692;53.314;-6.300;2022-11-20T02:15:35;6.13;;;2.50;;
64367;SDS011;50692;53.314;-6.300;2022-11-20T02:18:21;7.30;;;3.93;;
64367;SDS011;50692;53.314;-6.300;2022-11-20T02:24:16;9.30;;;3.03;;
64367;SDS011;50692;53.314;-6.300;2022-11-20T02:29:53;12.90;;;4.43;;
64367;SDS011;50692;53.314;-6.300;2022-11-20T02:32:43;9.90;;;3.23;;
64367;SDS011;50692;53.314;-6.300;2022-11-20T02:38:15;7.93;;;2.37;;
64367;SDS011;50692;53.314;-6.300;2022-11-20T02:41:01;7.83;;;2.40;;
64367;SDS011;50692;53.314;-6.300;2022-11-20T02:43:47;6.07;;;2.57;;
64367;SDS011;50692;53.314;-6.300;2022-11-20T02:46:33;7.30;;;2.40;;
64367;SDS011;50692;53.314;-6.300;2022-11-20T02:49:19;8.43;;;3.57;;
64367;SDS011;50692;53.314;-6.300;2022-11-20T02:52:05;8.97;;;2.63;;
64367;SDS011;50692;53.314;-6.300;2022-11-20T02:54:51;7.40;;;2.50;;
64367;SDS011;50692;53.314;-6.300;2022-11-20T02:57:37;8.60;;;2.40;;
64367;SDS011;50692;53.314;-6.300;2022-11-20T03:00:22;8.00;;;2.40;;
64367;SDS011;50692;53.314;-6.300;2022-11-20T03:03:08;7.30;;;2.30;;
64367;SDS011;50692;53.314;-6.300;2022-11-20T03:05:54;9.03;;;2.43;;
64367;SDS011;50692;53.314;-6.300;2022-11-20T03:08:40;6.37;;;2.13;;
64367;SDS011;50692;53.314;-6.300;2022-11-20T03:11:26;7.57;;;2.33;;
64367;SDS011;50692;53.314;-6.300;2022-11-20T03:14:11;6.77;;;1.73;;
64367;SDS011;50692;53.314;-6.300;2022-11-20T03:16:57;4.10;;;1.60;;
64367;SDS011;50692;53.314;-6.300;2022-11-20T03:19:43;5.03;;;1.50;;
64367;SDS011;50692;53.314;-6.300;2022-11-20T03:22:29;4.27;;;1.60;;
64367;SDS011;50692;53.314;-6.300;2022-11-20T03:25:15;5.90;;;1.50;;
64367;SDS011;50692;53.314;-6.300;2022-11-20T03:28:01;5.53;;;1.50;;
64367;SDS011;50692;53.314;-6.300;2022-11-20T03:30:47;3.07;;;1.20;;
64367;SDS011;50692;53.314;-6.300;2022-11-20T03:33:33;7.50;;;1.70;;
64367;SDS011;50692;53.314;-6.300;2022-11-20T03:36:19;5.93;;;1.70;;
64367;SDS011;50692;53.314;-6.300;2022-11-20T03:39:07;6.50;;;1.90;;
64367;SDS011;50692;53.314;-6.300;2022-11-20T03:41:53;3.37;;;1.47;;
64367;SDS011;50692;53.314;-6.300;2022-11-20T03:44:39;6.27;;;2.03;;
64367;SDS011;50692;53.314;-6.300;2022-11-20T03:47:25;6.37;;;1.60;;
64367;SDS011;50692;53.314;-6.300;2022-11-20T03:50:11;6.17;;;2.43;;
64367;SDS011;50692;53.314;-6.300;2022-11-20T03:52:59;3.37;;;1.53;;
64367;SDS011;50692;53.314;-6.300;2022-11-20T03:55:45;4.63;;;1.60;;
64367;SDS011;50692;53.314;-6.300;2022-11-20T03:58:35;7.97;;;2.03;;
64367;SDS011;50692;53.314;-6.300;2022-11-20T04:01:23;4.97;;;1.70;;
64367;SDS011;50692;53.314;-6.300;2022-11-20T04:04:11;7.90;;;2.10;;
64367;SDS011;50692;53.314;-6.300;2022-11-20T04:06:57;8.60;;;2.00;;
64367;SDS011;50692;53.314;-6.300;2022-11-20T04:09:42;9.10;;;2.00;;
64367;SDS011;50692;53.314;-6.300;2022-11-20T04:12:31;5.37;;;1.87;;
64367;SDS011;50692;53.314;-6.300;2022-11-20T04:15:17;4.75;;;1.95;;
64367;SDS011;50692;53.314;-6.300;2022-11-20T04:18:03;6.63;;;2.17;;
64367;SDS011;50692;53.314;-6.300;2022-11-20T04:20:49;6.63;;;1.90;;
64367;SDS011;50692;53.314;-6.300;2022-11-20T04:23:35;8.60;;;2.00;;
64367;SDS011;50692;53.314;-6.300;2022-11-20T04:26:22;5.80;;;1.80;;
64367;SDS011;50692;53.314;-6.300;2022-11-20T04:29:10;7.13;;;2.00;;
64367;SDS011;50692;53.314;-6.300;2022-11-20T04:31:57;6.67;;;2.20;;
64367;SDS011;50692;53.314;-6.300;2022-11-20T04:34:42;8.07;;;2.40;;
64367;SDS011;50692;53.314;-6.300;2022-11-20T04:37:28;6.57;;;2.10;;
64367;SDS011;50692;53.314;-6.300;2022-11-20T04:40:14;8.23;;;2.53;;
64367;SDS011;50692;53.314;-6.300;2022-11-20T04:43:00;5.20;;;1.73;;
64367;SDS011;50692;53.314;-6.300;2022-11-20T04:45:50;9.90;;;2.77;;
64367;SDS011;50692;53.314;-6.300;2022-11-20T04:48:36;6.30;;;2.57;;
64367;SDS011;50692;53.314;-6.300;2022-11-20T04:51:22;8.33;;;2.30;;
64367;SDS011;50692;53.314;-6.300;2022-11-20T04:54:09;7.20;;;2.03;;
64367;SDS011;50692;53.314;-6.300;2022-11-20T04:56:56;6.10;;;2.17;;
64367;SDS011;50692;53.314;-6.300;2022-11-20T04:59:42;11.07;;;2.50;;
64367;SDS011;50692;53.314;-6.300;2022-11-20T05:02:28;9.50;;;2.47;;
64367;SDS011;50692;53.314;-6.300;2022-11-20T05:05:16;6.07;;;2.57;;
64367;SDS011;50692;53.314;-6.300;2022-11-20T05:08:02;8.97;;;2.60;;
64367;SDS011;50692;53.314;-6.300;2022-11-20T05:10:48;7.83;;;2.47;;
64367;SDS011;50692;53.314;-6.300;2022-11-20T05:13:33;6.40;;;2.20;;
64367;SDS011;50692;53.314;-6.300;2022-11-20T05:16:21;4.97;;;1.93;;
64367;SDS011;50692;53.314;-6.300;2022-11-20T05:19:08;5.47;;;2.27;;
64367;SDS011;50692;53.314;-6.300;2022-11-20T05:21:54;8.43;;;2.20;;
64367;SDS011;50692;53.314;-6.300;2022-11-20T05:24:40;7.90;;;2.20;;
64367;SDS011;50692;53.314;-6.300;2022-11-20T05:27:26;4.17;;;2.00;;
64367;SDS011;50692;53.314;-6.300;2022-11-20T05:30:12;6.57;;;2.37;;
64367;SDS011;50692;53.314;-6.300;2022-11-20T05:32:58;7.73;;;2.00;;
64367;SDS011;50692;53.314;-6.300;2022-11-20T05:35:44;6.23;;;1.90;;
64367;SDS011;50692;53.314;-6.300;2022-11-20T05:38:30;5.20;;;2.40;;
64367;SDS011;50692;53.314;-6.300;2022-11-20T05:41:16;8.80;;;2.10;;
64367;SDS011;50692;53.314;-6.300;2022-11-20T05:44:04;6.23;;;1.90;;
64367;SDS011;50692;53.314;-6.300;2022-11-20T05:46:50;4.93;;;1.77;;
64367;SDS011;50692;53.314;-6.300;2022-11-20T05:49:35;5.63;;;2.00;;
64367;SDS011;50692;53.314;-6.300;2022-11-20T05:52:21;5.50;;;1.87;;
64367;SDS011;50692;53.314;-6.300;2022-11-20T05:55:07;6.50;;;2.03;;
64367;SDS011;50692;53.314;-6.300;2022-11-20T05:57:53;7.10;;;1.60;;
64367;SDS011;50692;53.314;-6.300;2022-11-20T06:00:40;5.97;;;2.10;;
64367;SDS011;50692;53.314;-6.300;2022-11-20T06:03:25;7.60;;;1.77;;
64367;SDS011;50692;53.314;-6.300;2022-11-20T06:06:11;3.10;;;1.23;;
64367;SDS011;50692;53.314;-6.300;2022-11-20T06:08:58;3.60;;;1.53;;
64367;SDS011;50692;53.314;-6.300;2022-11-20T06:11:44;5.20;;;1.67;;
64367;SDS011;50692;53.314;-6.300;2022-11-20T06:14:30;3.57;;;1.57;;
64367;SDS011;50692;53.314;-6.300;2022-11-20T06:17:15;6.60;;;1.53;;
64367;SDS011;50692;53.314;-6.300;2022-11-20T06:20:01;5.17;;;1.27;;
64367;SDS011;50692;53.314;-6.300;2022-11-20T06:22:47;4.23;;;1.10;;
64367;SDS011;50692;53.314;-6.300;2022-11-20T06:25:33;6.07;;;1.50;;
64367;SDS011;50692;53.314;-6.300;2022-11-20T06:28:23;5.43;;;1.90;;
64367;SDS011;50692;53.314;-6.300;2022-11-20T06:31:10;4.50;;;1.70;;
64367;SDS011;50692;53.314;-6.300;2022-11-20T06:33:57;4.93;;;1.50;;
64367;SDS011;50692;53.314;-6.300;2022-11-20T06:36:43;3.90;;;1.50;;
64367;SDS011;50692;53.314;-6.300;2022-11-20T06:39:28;4.70;;;1.57;;
64367;SDS011;50692;53.314;-6.300;2022-11-20T06:42:14;5.63;;;1.80;;
64367;SDS011;50692;53.314;-6.300;2022-11-20T06:45:00;6.27;;;1.40;;
64367;SDS011;50692;53.314;-6.300;2022-11-20T06:47:46;2.97;;;1.23;;
64367;SDS011;50692;53.314;-6.300;2022-11-20T06:50:32;6.37;;;1.60;;
64367;SDS011;50692;53.314;-6.300;2022-11-20T06:53:18;7.10;;;1.90;;
64367;SDS011;50692;53.314;-6.300;2022-11-20T06:56:04;5.87;;;1.83;;
64367;SDS011;50692;53.314;-6.300;2022-11-20T06:58:51;4.47;;;1.83;;
64367;SDS011;50692;53.314;-6.300;2022-11-20T07:01:36;7.93;;;2.00;;
64367;SDS011;50692;53.314;-6.300;2022-11-20T07:04:22;4.60;;;1.30;;
64367;SDS011;50692;53.314;-6.300;2022-11-20T07:07:08;3.47;;;1.43;;
64367;SDS011;50692;53.314;-6.300;2022-11-20T07:09:54;3.83;;;1.77;;
64367;SDS011;50692;53.314;-6.300;2022-11-20T07:12:40;2.50;;;0.90;;
64367;SDS011;50692;53.314;-6.300;2022-11-20T07:15:26;3.60;;;1.40;;
64367;SDS011;50692;53.314;-6.300;2022-11-20T07:18:12;5.67;;;1.40;;
64367;SDS011;50692;53.314;-6.300;2022-11-20T07:21:01;4.27;;;1.73;;
64367;SDS011;50692;53.314;-6.300;2022-11-20T07:23:48;5.80;;;1.80;;
64367;SDS011;50692;53.314;-6.300;2022-11-20T07:26:34;5.17;;;1.63;;
64367;SDS011;50692;53.314;-6.300;2022-11-20T07:29:19;7.40;;;2.30;;
64367;SDS011;50692;53.314;-6.300;2022-11-20T07:32:05;1.97;;;1.20;;
64367;SDS011;50692;53.314;-6.300;2022-11-20T07:34:51;5.33;;;2.00;;
64367;SDS011;50692;53.314;-6.300;2022-11-20T07:37:37;5.80;;;1.60;;
64367;SDS011;50692;53.314;-6.300;2022-11-20T07:40:23;5.70;;;1.37;;
64367;SDS011;50692;53.314;-6.300;2022-11-20T07:43:09;5.23;;;1.77;;
64367;SDS011;50692;53.314;-6.300;2022-11-20T07:45:55;5.67;;;1.83;;
64367;SDS011;50692;53.314;-6.300;2022-11-20T07:48:41;5.43;;;2.23;;
64367;SDS011;50692;53.314;-6.300;2022-11-20T07:51:27;5.10;;;1.53;;
64367;SDS011;50692;53.314;-6.300;2022-11-20T07:54:14;7.67;;;1.97;;
64367;SDS011;50692;53.314;-6.300;2022-11-20T07:57:00;6.67;;;2.00;;
64367;SDS011;50692;53.314;-6.300;2022-11-20T07:59:46;6.40;;;1.90;;
64367;SDS011;50692;53.314;-6.300;2022-11-20T08:02:32;7.83;;;2.00;;
64367;SDS011;50692;53.314;-6.300;2022-11-20T08:05:17;6.63;;;2.67;;
64367;SDS011;50692;53.314;-6.300;2022-11-20T08:08:03;5.73;;;1.73;;
64367;SDS011;50692;53.314;-6.300;2022-11-20T08:10:49;7.40;;;2.10;;
64367;SDS011;50692;53.314;-6.300;2022-11-20T08:13:35;8.70;;;2.27;;
64367;SDS011;50692;53.314;-6.300;2022-11-20T08:16:43;4.93;;;2.23;;
64367;SDS011;50692;53.314;-6.300;2022-11-20T08:19:33;8.23;;;2.07;;
64367;SDS011;50692;53.314;-6.300;2022-11-20T08:22:19;8.37;;;2.00;;
64367;SDS011;50692;53.314;-6.300;2022-11-20T08:25:05;7.93;;;2.13;;
64367;SDS011;50692;53.314;-6.300;2022-11-20T08:27:52;5.50;;;2.00;;
64367;SDS011;50692;53.314;-6.300;2022-11-20T08:30:37;6.50;;;2.73;;
64367;SDS011;50692;53.314;-6.300;2022-11-20T08:33:23;5.63;;;2.30;;
64367;SDS011;50692;53.314;-6.300;2022-11-20T08:36:09;6.47;;;1.90;;
64367;SDS011;50692;53.314;-6.300;2022-11-20T08:38:55;3.60;;;1.67;;
64367;SDS011;50692;53.314;-6.300;2022-11-20T08:41:41;6.17;;;1.90;;
64367;SDS011;50692;53.314;-6.300;2022-11-20T08:44:27;5.23;;;1.90;;
64367;SDS011;50692;53.314;-6.300;2022-11-20T08:47:12;6.77;;;2.17;;
64367;SDS011;50692;53.314;-6.300;2022-11-20T08:49:58;4.83;;;1.80;;
64367;SDS011;50692;53.314;-6.300;2022-11-20T08:52:44;5.40;;;2.13;;
64367;SDS011;50692;53.314;-6.300;2022-11-20T08:55:30;5.00;;;1.83;;
64367;SDS011;50692;53.314;-6.300;2022-11-20T08:58:16;5.33;;;1.63;;
64367;SDS011;50692;53.314;-6.300;2022-11-20T09:01:02;7.53;;;1.87;;
64367;SDS011;50692;53.314;-6.300;2022-11-20T09:03:48;4.00;;;1.57;;
64367;SDS011;50692;53.314;-6.300;2022-11-20T09:06:34;10.13;;;2.47;;
64367;SDS011;50692;53.314;-6.300;2022-11-20T09:09:20;5.83;;;1.80;;
64367;SDS011;50692;53.314;-6.300;2022-11-20T09:12:05;4.00;;;1.80;;
64367;SDS011;50692;53.314;-6.300;2022-11-20T09:14:51;4.97;;;1.20;;
64367;SDS011;50692;53.314;-6.300;2022-11-20T09:17:37;3.67;;;1.70;;
64367;SDS011;50692;53.314;-6.300;2022-11-20T09:20:23;6.57;;;1.70;;
64367;SDS011;50692;53.314;-6.300;2022-11-20T09:23:09;5.20;;;1.37;;
64367;SDS011;50692;53.314;-6.300;2022-11-20T09:25:55;4.07;;;1.70;;
64367;SDS011;50692;53.314;-6.300;2022-11-20T09:28:44;6.25;;;1.30;;
64367;SDS011;50692;53.314;-6.300;2022-11-20T09:31:30;5.00;;;1.57;;
64367;SDS011;50692;53.314;-6.300;2022-11-20T09:34:16;3.17;;;1.10;;
64367;SDS011;50692;53.314;-6.300;2022-11-20T09:37:02;2.73;;;0.97;;
64367;SDS011;50692;53.314;-6.300;2022-11-20T09:39:48;2.47;;;1.00;;
64367;SDS011;50692;53.314;-6.300;2022-11-20T09:46:26;3.13;;;1.17;;
64367;SDS011;50692;53.314;-6.300;2022-11-20T09:49:02;3.23;;;1.27;;
64367;SDS011;50692;53.314;-6.300;2022-11-20T09:55:04;2.67;;;1.20;;
64367;SDS011;50692;53.314;-6.300;2022-11-20T09:57:55;4.57;;;1.57;;
64367;SDS011;50692;53.314;-6.300;2022-11-20T10:00:44;2.17;;;0.90;;
64367;SDS011;50692;53.314;-6.300;2022-11-20T10:03:37;3.90;;;1.10;;
64367;SDS011;50692;53.314;-6.300;2022-11-20T10:09:56;4.10;;;1.33;;
64367;SDS011;50692;53.314;-6.300;2022-11-20T10:37:26;1.33;;;0.40;;
64367;SDS011;50692;53.314;-6.300;2022-11-20T10:43:22;0.70;;;0.60;;
64367;SDS011;50692;53.314;-6.300;2022-11-20T10:46:19;1.47;;;0.80;;
64367;SDS011;50692;53.314;-6.300;2022-11-20T10:49:13;1.30;;;0.83;;
64367;SDS011;50692;53.314;-6.300;2022-11-20T11:01:14;1.90;;;0.83;;
64367;SDS011;50692;53.314;-6.300;2022-11-20T11:04:06;3.27;;;0.70;;
64367;SDS011;50692;53.314;-6.300;2022-11-20T11:07:20;3.10;;;0.90;;
64367;SDS011;50692;53.314;-6.300;2022-11-20T11:10:13;0.80;;;0.70;;
64367;SDS011;50692;53.314;-6.300;2022-11-20T11:13:01;1.50;;;0.50;;
64367;SDS011;50692;53.314;-6.300;2022-11-20T11:15:47;1.50;;;0.70;;
64367;SDS011;50692;53.314;-6.300;2022-11-20T11:18:33;1.30;;;0.47;;
64367;SDS011;50692;53.314;-6.300;2022-11-20T11:21:24;0.53;;;0.40;;
64367;SDS011;50692;53.314;-6.300;2022-11-20T11:27:11;0.80;;;0.50;;
64367;SDS011;50692;53.314;-6.300;2022-11-20T11:30:03;0.93;;;0.30;;
64367;SDS011;50692;53.314;-6.300;2022-11-20T11:33:03;1.30;;;0.50;;
64367;SDS011;50692;53.314;-6.300;2022-11-20T11:41:31;0.40;;;0.40;;
64367;SDS011;50692;53.314;-6.300;2022-11-20T11:44:32;1.02;;;0.40;;
64367;SDS011;50692;53.314;-6.300;2022-11-20T11:50:28;0.80;;;0.40;;
64367;SDS011;50692;53.314;-6.300;2022-11-20T11:53:15;0.50;;;0.50;;
64367;SDS011;50692;53.314;-6.300;2022-11-20T11:56:05;0.82;;;0.40;;
64367;SDS011;50692;53.314;-6.300;2022-11-20T11:58:55;0.60;;;0.40;;
64367;SDS011;50692;53.314;-6.300;2022-11-20T12:01:51;0.77;;;0.50;;
64367;SDS011;50692;53.314;-6.300;2022-11-20T12:07:43;1.08;;;0.57;;
64367;SDS011;50692;53.314;-6.300;2022-11-20T12:16:43;1.58;;;0.60;;
64367;SDS011;50692;53.314;-6.300;2022-11-20T12:19:30;0.70;;;0.60;;
64367;SDS011;50692;53.314;-6.300;2022-11-20T12:25:22;0.82;;;0.75;;
64367;SDS011;50692;53.314;-6.300;2022-11-20T12:31:16;1.48;;;0.77;;
64367;SDS011;50692;53.314;-6.300;2022-11-20T12:34:16;1.40;;;0.80;;
64367;SDS011;50692;53.314;-6.300;2022-11-20T12:44:00;1.10;;;0.65;;
64367;SDS011;50692;53.314;-6.300;2022-11-20T12:47:24;0.70;;;0.52;;
64367;SDS011;50692;53.314;-6.300;2022-11-20T12:56:50;1.35;;;0.90;;
64367;SDS011;50692;53.314;-6.300;2022-11-20T13:06:04;1.88;;;0.75;;
64367;SDS011;50692;53.314;-6.300;2022-11-20T13:08:57;1.70;;;0.85;;
64367;SDS011;50692;53.314;-6.300;2022-11-20T13:14:46;2.45;;;1.05;;
64367;SDS011;50692;53.314;-6.300;2022-11-20T13:18:00;4.00;;;1.23;;
64367;SDS011;50692;53.314;-6.300;2022-11-20T13:20:48;1.42;;;1.00;;
64367;SDS011;50692;53.314;-6.300;2022-11-20T13:23:35;3.17;;;1.25;;
64367;SDS011;50692;53.314;-6.300;2022-11-20T13:26:22;2.78;;;1.10;;
64367;SDS011;50692;53.314;-6.300;2022-11-20T13:29:12;3.67;;;1.10;;
64367;SDS011;50692;53.314;-6.300;2022-11-20T13:32:07;1.52;;;1.02;;
64367;SDS011;50692;53.314;-6.300;2022-11-20T13:35:01;3.05;;;1.13;;
64367;SDS011;50692;53.314;-6.300;2022-11-20T13:37:58;1.92;;;0.93;;
64367;SDS011;50692;53.314;-6.300;2022-11-20T13:43:38;1.65;;;1.10;;
64367;SDS011;50692;53.314;-6.300;2022-11-20T13:46:37;3.28;;;1.13;;
64367;SDS011;50692;53.314;-6.300;2022-11-20T13:49:26;1.45;;;0.88;;
64367;SDS011;50692;53.314;-6.300;2022-11-20T14:01:57;2.15;;;1.02;;
64367;SDS011;50692;53.314;-6.300;2022-11-20T14:04:49;3.58;;;1.30;;
64367;SDS011;50692;53.314;-6.300;2022-11-20T14:07:39;1.92;;;1.00;;
64367;SDS011;50692;53.314;-6.300;2022-11-20T14:10:28;3.95;;;1.20;;
64367;SDS011;50692;53.314;-6.300;2022-11-20T14:13:18;2.08;;;1.30;;
64367;SDS011;50692;53.314;-6.300;2022-11-20T14:16:05;1.90;;;0.90;;
64367;SDS011;50692;53.314;-6.300;2022-11-20T14:18:50;2.63;;;1.10;;
64367;SDS011;50692;53.314;-6.300;2022-11-20T14:21:37;3.78;;;1.42;;
64367;SDS011;50692;53.314;-6.300;2022-11-20T14:24:23;2.45;;;1.10;;
64367;SDS011;50692;53.314;-6.300;2022-11-20T14:27:17;3.55;;;1.33;;
64367;SDS011;50692;53.314;-6.300;2022-11-20T14:30:05;3.28;;;1.27;;
64367;SDS011;50692;53.314;-6.300;2022-11-20T14:33:01;4.20;;;1.27;;
64367;SDS011;50692;53.314;-6.300;2022-11-20T14:35:52;2.90;;;1.33;;
64367;SDS011;50692;53.314;-6.300;2022-11-20T14:38:40;3.05;;;1.30;;
64367;SDS011;50692;53.314;-6.300;2022-11-20T14:41:27;3.72;;;1.40;;
64367;SDS011;50692;53.314;-6.300;2022-11-20T14:44:14;2.97;;;1.42;;
64367;SDS011;50692;53.314;-6.300;2022-11-20T14:47:00;5.22;;;1.73;;
64367;SDS011;50692;53.314;-6.300;2022-11-20T14:49:49;4.60;;;1.75;;
64367;SDS011;50692;53.314;-6.300;2022-11-20T14:52:36;2.50;;;1.50;;
64367;SDS011;50692;53.314;-6.300;2022-11-20T14:55:36;2.55;;;1.40;;
64367;SDS011;50692;53.314;-6.300;2022-11-20T14:58:27;2.13;;;1.60;;
64367;SDS011;50692;53.314;-6.300;2022-11-20T15:01:14;2.97;;;1.70;;
64367;SDS011;50692;53.314;-6.300;2022-11-20T15:04:12;2.80;;;1.70;;
64367;SDS011;50692;53.314;-6.300;2022-11-20T15:06:59;2.58;;;1.10;;
64367;SDS011;50692;53.314;-6.300;2022-11-20T15:09:45;2.55;;;1.52;;
64367;SDS011;50692;53.314;-6.300;2022-11-20T15:12:31;3.33;;;1.70;;
64367;SDS011;50692;53.314;-6.300;2022-11-20T15:18:18;4.53;;;2.17;;
64367;SDS011;50692;53.314;-6.300;2022-11-20T15:21:13;3.55;;;2.30;;
64367;SDS011;50692;53.314;-6.300;2022-11-20T15:24:04;4.27;;;1.70;;
64367;SDS011;50692;53.314;-6.300;2022-11-20T15:26:54;3.67;;;1.83;;
64367;SDS011;50692;53.314;-6.300;2022-11-20T15:29:40;3.13;;;1.27;;
64367;SDS011;50692;53.314;-6.300;2022-11-20T15:32:27;4.67;;;1.93;;
64367;SDS011;50692;53.314;-6.300;2022-11-20T15:35:14;3.10;;;1.53;;
64367;SDS011;50692;53.314;-6.300;2022-11-20T15:38:00;3.63;;;2.03;;
64367;SDS011;50692;53.314;-6.300;2022-11-20T15:40:46;5.03;;;1.83;;
64367;SDS011;50692;53.314;-6.300;2022-11-20T15:43:32;2.50;;;1.67;;
64367;SDS011;50692;53.314;-6.300;2022-11-20T15:46:19;2.20;;;1.40;;
64367;SDS011;50692;53.314;-6.300;2022-11-20T15:49:13;4.33;;;1.70;;
64367;SDS011;50692;53.314;-6.300;2022-11-20T15:52:00;2.37;;;1.27;;
64367;SDS011;50692;53.314;-6.300;2022-11-20T15:54:46;2.40;;;1.30;;
64367;SDS011;50692;53.314;-6.300;2022-11-20T15:57:31;3.53;;;1.80;;
64367;SDS011;50692;53.314;-6.300;2022-11-20T16:00:17;4.03;;;2.47;;
64367;SDS011;50692;53.314;-6.300;2022-11-20T16:03:03;4.63;;;2.60;;
64367;SDS011;50692;53.314;-6.300;2022-11-20T16:05:49;3.97;;;2.20;;
64367;SDS011;50692;53.314;-6.300;2022-11-20T16:08:35;4.20;;;1.53;;
64367;SDS011;50692;53.314;-6.300;2022-11-20T16:11:21;3.23;;;1.60;;
64367;SDS011;50692;53.314;-6.300;2022-11-20T16:14:09;4.47;;;2.33;;
64367;SDS011;50692;53.314;-6.300;2022-11-20T16:17:14;4.00;;;2.17;;
64367;SDS011;50692;53.314;-6.300;2022-11-20T16:20:00;4.13;;;2.23;;
64367;SDS011;50692;53.314;-6.300;2022-11-20T16:22:46;4.23;;;2.07;;
64367;SDS011;50692;53.314;-6.300;2022-11-20T16:25:32;3.37;;;1.73;;
64367;SDS011;50692;53.314;-6.300;2022-11-20T16:28:18;2.97;;;1.93;;
64367;SDS011;50692;53.314;-6.300;2022-11-20T16:31:22;2.83;;;1.57;;
64367;SDS011;50692;53.314;-6.300;2022-11-20T16:34:08;3.87;;;1.97;;
64367;SDS011;50692;53.314;-6.300;2022-11-20T16:36:54;2.57;;;1.70;;
64367;SDS011;50692;53.314;-6.300;2022-11-20T16:39:40;5.00;;;2.07;;
64367;SDS011;50692;53.314;-6.300;2022-11-20T16:42:25;3.13;;;2.03;;
64367;SDS011;50692;53.314;-6.300;2022-11-20T16:45:11;4.27;;;2.77;;
64367;SDS011;50692;53.314;-6.300;2022-11-20T16:47:57;2.67;;;2.10;;
64367;SDS011;50692;53.314;-6.300;2022-11-20T16:50:47;6.00;;;2.57;;
64367;SDS011;50692;53.314;-6.300;2022-11-20T16:53:34;5.83;;;4.03;;
64367;SDS011;50692;53.314;-6.300;2022-11-20T16:56:21;4.53;;;2.90;;
64367;SDS011;50692;53.314;-6.300;2022-11-20T16:59:09;6.63;;;3.40;;
64367;SDS011;50692;53.314;-6.300;2022-11-20T17:01:55;7.47;;;4.87;;
64367;SDS011;50692;53.314;-6.300;2022-11-20T17:04:41;7.87;;;5.20;;
64367;SDS011;50692;53.314;-6.300;2022-11-20T17:07:27;4.87;;;3.63;;
64367;SDS011;50692;53.314;-6.300;2022-11-20T17:10:13;4.23;;;3.33;;
64367;SDS011;50692;53.314;-6.300;2022-11-20T17:12:59;4.67;;;2.87;;
64367;SDS011;50692;53.314;-6.300;2022-11-20T17:15:45;4.73;;;2.57;;
64367;SDS011;50692;53.314;-6.300;2022-11-20T17:18:31;6.53;;;2.87;;
64367;SDS011;50692;53.314;-6.300;2022-11-20T17:21:17;3.87;;;2.43;;
64367;SDS011;50692;53.314;-6.300;2022-11-20T17:24:04;5.40;;;2.47;;
64367;SDS011;50692;53.314;-6.300;2022-11-20T17:26:52;4.30;;;2.47;;
64367;SDS011;50692;53.314;-6.300;2022-11-20T17:29:38;4.20;;;2.97;;
64367;SDS011;50692;53.314;-6.300;2022-11-20T17:32:24;5.77;;;2.70;;
64367;SDS011;50692;53.314;-6.300;2022-11-20T17:35:10;5.30;;;3.33;;
64367;SDS011;50692;53.314;-6.300;2022-11-20T17:37:56;6.57;;;3.20;;
64367;SDS011;50692;53.314;-6.300;2022-11-20T17:40:42;4.60;;;2.27;;
64367;SDS011;50692;53.314;-6.300;2022-11-20T17:43:27;7.33;;;3.73;;
64367;SDS011;50692;53.314;-6.300;2022-11-20T17:46:17;6.63;;;3.73;;
64367;SDS011;50692;53.314;-6.300;2022-11-20T17:49:05;7.13;;;4.40;;
64367;SDS011;50692;53.314;-6.300;2022-11-20T17:51:51;5.13;;;3.50;;
64367;SDS011;50692;53.314;-6.300;2022-11-20T17:54:37;8.40;;;3.50;;
64367;SDS011;50692;53.314;-6.300;2022-11-20T17:57:23;6.43;;;2.90;;
64367;SDS011;50692;53.314;-6.300;2022-11-20T18:00:27;6.97;;;4.27;;
64367;SDS011;50692;53.314;-6.300;2022-11-20T18:03:14;7.37;;;4.57;;
64367;SDS011;50692;53.314;-6.300;2022-11-20T18:06:07;8.00;;;3.90;;
64367;SDS011;50692;53.314;-6.300;2022-11-20T18:08:54;8.83;;;4.60;;
64367;SDS011;50692;53.314;-6.300;2022-11-20T18:11:42;8.60;;;4.50;;
64367;SDS011;50692;53.314;-6.300;2022-11-20T18:14:28;8.50;;;4.60;;
64367;SDS011;50692;53.314;-6.300;2022-11-20T18:17:16;10.10;;;4.77;;
64367;SDS011;50692;53.314;-6.300;2022-11-20T18:20:02;5.70;;;3.77;;
64367;SDS011;50692;53.314;-6.300;2022-11-20T18:22:49;11.40;;;4.57;;
64367;SDS011;50692;53.314;-6.300;2022-11-20T18:25:34;6.37;;;4.07;;
64367;SDS011;50692;53.314;-6.300;2022-11-20T18:28:20;7.27;;;4.43;;
64367;SDS011;50692;53.314;-6.300;2022-11-20T18:31:08;11.30;;;6.23;;
64367;SDS011;50692;53.314;-6.300;2022-11-20T18:33:54;7.47;;;5.40;;
64367;SDS011;50692;53.314;-6.300;2022-11-20T18:36:40;11.83;;;5.97;;
64367;SDS011;50692;53.314;-6.300;2022-11-20T18:39:27;9.33;;;5.77;;
64367;SDS011;50692;53.314;-6.300;2022-11-20T18:42:13;5.83;;;4.50;;